Time;durP1;ratioP1;P1;durP2;ratioP2;P2;SDS_P1;SDS_P2;PMS_P1;PMS_P2;Temp;Humidity;BMP_temperature;BMP_pressure;BME280_temperature;BME280_humidity;BME280_pressure;Samples;Min_cycle;Max_cycle;Signal;HPM_P1;HPM_P2
2023/04/11 00:02:00;;;;;;;0.60;0.60;;;;;;;6.71;67.76;99878.28;4934063;29;20139;-82
2023/04/11 00:04:27;;;;;;;0.55;0.55;;;;;;;6.68;68.11;99875.16;4934303;29;20048;-84
2023/04/11 00:06:54;;;;;;;0.60;0.60;;;;;;;6.63;68.18;99864.19;4939494;29;20143;-83
2023/04/11 00:09:21;;;;;;;0.60;0.60;;;;;;;6.61;68.51;99869.78;4954520;29;20047;-83
2023/04/11 00:11:48;;;;;;;0.50;0.50;;;;;;;6.59;68.42;99874.50;4960355;29;20031;-83
2023/04/11 00:14:18;;;;;;;0.60;0.60;;;;;;;6.64;68.22;99877.41;4944562;29;20047;-83
2023/04/11 00:16:48;;;;;;;0.60;0.60;;;;;;;6.65;68.07;99883.59;4921994;29;20051;-83
2023/04/11 00:19:15;;;;;;;0.50;0.50;;;;;;;6.62;68.15;99886.69;4954924;29;20051;-83
2023/04/11 00:21:42;;;;;;;0.50;0.50;;;;;;;6.59;68.30;99884.41;4952544;29;20047;-84
2023/04/11 00:24:10;;;;;;;0.50;0.50;;;;;;;6.52;68.63;99879.00;4953023;29;20063;-84
2023/04/11 00:26:37;;;;;;;0.60;0.60;;;;;;;6.48;68.67;99878.56;4952798;29;20051;-83
2023/04/11 00:29:04;;;;;;;0.60;0.60;;;;;;;6.51;68.54;99880.84;4952919;29;20070;-83
2023/04/11 00:31:32;;;;;;;0.60;0.60;;;;;;;6.47;68.78;99881.44;4935937;29;20054;-83
2023/04/11 00:33:59;;;;;;;0.60;0.60;;;;;;;6.40;69.37;99862.59;4951633;29;20054;-83
2023/04/11 00:36:26;;;;;;;0.60;0.60;;;;;;;6.40;69.72;99864.47;4951426;29;20047;-83
2023/04/11 00:38:53;;;;;;;0.60;0.60;;;;;;;6.37;70.15;99862.19;4951581;29;20102;-82
2023/04/11 00:41:23;;;;;;;0.60;0.60;;;;;;;6.24;70.67;99862.91;4952888;29;20059;-84
2023/04/11 00:43:50;;;;;;;0.52;0.52;;;;;;;6.18;71.17;99861.00;4952672;29;20047;-83
2023/04/11 00:46:17;;;;;;;0.60;0.60;;;;;;;6.26;70.29;99868.91;4951569;29;20048;-83
2023/04/11 00:48:47;;;;;;;0.50;0.50;;;;;;;6.38;69.73;99866.50;4936053;29;20569;-84
2023/04/11 00:51:14;;;;;;;0.50;0.50;;;;;;;6.47;69.17;99871.53;4952877;29;20077;-83
2023/04/11 00:53:45;;;;;;;0.50;0.50;;;;;;;6.53;69.15;99869.09;4920120;29;20134;-84
2023/04/11 00:56:12;;;;;;;0.60;0.60;;;;;;;6.55;69.17;99867.03;4920682;29;20122;-83
2023/04/11 00:58:40;;;;;;;0.52;0.52;;;;;;;6.57;68.55;99867.66;4951162;28;20059;-83
2023/04/11 01:01:08;;;;;;;0.60;0.60;;;;;;;6.50;68.98;99871.13;4941311;29;20142;-83
2023/04/11 01:03:37;;;;;;;0.60;0.60;;;;;;;6.41;69.86;99874.19;4943029;29;20146;-83
2023/04/11 01:06:06;;;;;;;0.60;0.60;;;;;;;6.41;69.80;99877.69;4940643;29;20118;-82
2023/04/11 01:08:34;;;;;;;0.70;0.70;;;;;;;6.42;69.90;99879.34;4925958;29;20856;-83
2023/04/11 01:11:02;;;;;;;0.60;0.60;;;;;;;6.41;69.81;99879.53;4942300;29;20047;-83
2023/04/11 01:13:29;;;;;;;0.60;0.60;;;;;;;6.42;70.17;99879.34;4925622;29;20047;-83
2023/04/11 01:15:57;;;;;;;0.60;0.60;;;;;;;6.47;69.75;99884.13;4925542;29;20426;-82
2023/04/11 01:18:25;;;;;;;0.60;0.60;;;;;;;6.50;69.50;99881.84;4925449;29;20134;-83
2023/04/11 01:20:52;;;;;;;0.60;0.60;;;;;;;6.44;70.12;99877.28;4925936;29;20054;-83
2023/04/11 01:23:24;;;;;;;0.60;0.60;;;;;;;6.36;70.64;99880.13;4915102;29;20526;-83
2023/04/11 01:25:51;;;;;;;0.60;0.60;;;;;;;6.23;71.49;99878.19;4950909;29;20162;-82
2023/04/11 01:28:19;;;;;;;0.60;0.60;;;;;;;6.24;71.61;99877.16;4950123;29;20085;-83
2023/04/11 01:30:46;;;;;;;0.60;0.60;;;;;;;6.30;72.09;99878.22;4934629;29;20081;-83
2023/04/11 01:33:14;;;;;;;0.60;0.60;;;;;;;6.37;71.94;99870.22;4951460;29;20051;-82
2023/04/11 01:35:42;;;;;;;0.60;0.60;;;;;;;6.38;72.09;99887.97;4934521;29;20051;-82
2023/04/11 01:38:09;;;;;;;0.50;0.50;;;;;;;6.22;73.42;99881.03;4944764;29;20503;-80
2023/04/11 01:40:39;;;;;;;0.68;0.68;;;;;;;6.08;75.27;99875.59;4947557;29;20051;-83
2023/04/11 01:43:08;;;;;;;0.60;0.60;;;;;;;5.94;76.42;99879.16;4957412;29;20134;-82
2023/04/11 01:45:35;;;;;;;0.60;0.60;;;;;;;5.92;77.23;99878.50;4952347;29;20051;-82
2023/04/11 01:48:06;;;;;;;0.60;0.60;;;;;;;5.83;78.74;99885.84;4935472;29;20756;-82
2023/04/11 01:50:34;;;;;;;0.60;0.60;;;;;;;5.64;80.05;99879.28;4950835;29;20051;-83
2023/04/11 01:53:01;;;;;;;0.70;0.70;;;;;;;5.59;80.65;99881.69;4951144;29;20585;-81
2023/04/11 01:55:29;;;;;;;0.70;0.70;;;;;;;5.71;79.46;99874.00;4950384;29;20154;-82
2023/04/11 01:57:56;;;;;;;0.60;0.60;;;;;;;5.79;79.24;99867.66;4918003;29;20051;-82
2023/04/11 02:00:23;;;;;;;0.70;0.70;;;;;;;5.83;79.35;99868.94;4934170;29;20074;-83
2023/04/11 02:02:50;;;;;;;0.70;0.70;;;;;;;5.80;80.52;99864.00;4950786;29;20047;-83
2023/04/11 02:05:23;;;;;;;0.70;0.70;;;;;;;5.79;81.40;99857.78;4917768;29;20149;-82
2023/04/11 02:07:52;;;;;;;0.60;0.60;;;;;;;5.80;82.11;99854.09;4933779;29;20055;-82
2023/04/11 02:10:20;;;;;;;0.70;0.70;;;;;;;5.82;82.81;99846.69;4951321;29;20051;-83
2023/04/11 02:12:47;;;;;;;0.70;0.70;;;;;;;5.85;83.26;99842.81;4918243;29;20113;-82
2023/04/11 02:15:17;;;;;;;0.70;0.70;;;;;;;5.88;83.56;99839.75;4950820;29;20146;-83
2023/04/11 02:17:44;;;;;;;0.70;0.70;;;;;;;5.90;84.18;99840.38;4918543;29;20110;-82
2023/04/11 02:20:12;;;;;;;0.70;0.70;;;;;;;5.93;84.57;99839.97;4935674;29;20051;-83
2023/04/11 02:22:42;;;;;;;0.60;0.60;;;;;;;5.89;84.76;99838.69;4956066;29;20054;-82
2023/04/11 02:25:09;;;;;;;0.70;0.70;;;;;;;5.86;84.89;99836.41;4957332;29;20427;-83
2023/04/11 02:27:36;;;;;;;0.70;0.70;;;;;;;5.90;85.22;99839.53;4953013;29;20081;-82
2023/04/11 02:30:04;;;;;;;0.60;0.60;;;;;;;5.93;85.17;99839.97;4954539;29;20051;-82
2023/04/11 02:32:34;;;;;;;0.60;0.60;;;;;;;5.99;84.78;99849.94;4937641;29;20142;-83
2023/04/11 02:35:01;;;;;;;0.60;0.60;;;;;;;6.01;84.59;99831.81;4953225;29;20043;-82
2023/04/11 02:37:28;;;;;;;0.70;0.70;;;;;;;6.00;85.01;99835.53;4953390;29;20418;-81
2023/04/11 02:39:56;;;;;;;0.60;0.60;;;;;;;5.98;85.47;99831.41;4954214;29;20510;-82
2023/04/11 02:42:25;;;;;;;0.70;0.70;;;;;;;5.92;85.81;99830.28;4954587;29;20047;-82
2023/04/11 02:44:54;;;;;;;0.63;0.63;;;;;;;5.85;86.12;99832.09;4954016;29;20055;-83
2023/04/11 02:47:26;;;;;;;0.60;0.60;;;;;;;5.86;86.43;99833.75;4937190;29;20520;-83
2023/04/11 02:50:01;;;;;;;0.50;0.50;;;;;;;5.89;86.87;99838.69;4952508;29;20051;-83
2023/04/11 02:52:38;;;;;;;0.70;0.70;;;;;;;5.94;87.13;99843.50;4952937;29;20082;-83
2023/04/11 02:55:05;;;;;;;0.70;0.70;;;;;;;5.92;87.25;99835.63;4936594;29;20047;-83
2023/04/11 02:57:32;;;;;;;0.60;0.60;;;;;;;5.93;87.50;99841.84;4952903;29;20486;-83
2023/04/11 02:59:59;;;;;;;0.70;0.70;;;;;;;5.96;87.30;99841.47;4953921;29;20146;-82
2023/04/11 03:02:37;;;;;;;0.70;0.70;;;;;;;5.94;87.24;99844.34;4952697;29;20134;-81
2023/04/11 03:05:06;;;;;;;0.60;0.60;;;;;;;5.95;87.27;99839.81;4949405;29;20059;-85
2023/04/11 03:07:39;;;;;;;0.60;0.60;;;;;;;5.98;87.57;99832.22;4956120;29;20055;-86
2023/04/11 03:10:08;;;;;;;0.60;0.60;;;;;;;6.06;87.99;99833.94;4921850;29;20452;-85
2023/04/11 03:12:36;;;;;;;0.70;0.70;;;;;;;6.08;88.28;99840.75;4952681;29;20049;-85
2023/04/11 03:15:05;;;;;;;0.70;0.70;;;;;;;6.10;88.21;99837.03;4952534;29;20043;-85
2023/04/11 03:17:35;;;;;;;0.70;0.70;;;;;;;6.11;88.34;99836.03;4937586;29;20502;-84
2023/04/11 03:20:06;;;;;;;0.60;0.60;;;;;;;6.15;88.15;99834.59;4952861;29;20051;-85
2023/04/11 03:22:33;;;;;;;0.60;0.60;;;;;;;6.16;88.16;99833.59;4937453;29;20533;-84
2023/04/11 03:25:00;;;;;;;0.60;0.60;;;;;;;6.14;88.15;99831.09;4936322;29;20082;-84
2023/04/11 03:27:29;;;;;;;0.60;0.60;;;;;;;6.18;88.29;99837.72;4933592;29;20055;-83
2023/04/11 03:30:01;;;;;;;0.60;0.60;;;;;;;6.20;88.00;99833.00;4933792;29;20075;-83
2023/04/11 03:32:37;;;;;;;0.60;0.60;;;;;;;6.20;87.95;99830.34;4954861;28;20058;-85
2023/04/11 03:35:05;;;;;;;0.60;0.60;;;;;;;6.27;87.65;99833.03;4942576;29;20079;-85
2023/04/11 03:37:32;;;;;;;0.68;0.68;;;;;;;6.30;87.79;99829.97;4937042;29;20514;-84
2023/04/11 03:40:03;;;;;;;0.60;0.60;;;;;;;6.31;87.64;99833.50;4933768;29;20054;-84
2023/04/11 03:42:30;;;;;;;0.60;0.60;;;;;;;6.32;87.47;99832.44;4936685;29;20051;-82
2023/04/11 03:45:00;;;;;;;0.70;0.70;;;;;;;6.33;87.21;99826.06;4936257;29;20062;-84
2023/04/11 03:47:27;;;;;;;0.65;0.65;;;;;;;6.40;87.07;99832.28;4937586;29;20053;-84
2023/04/11 03:50:00;;;;;;;0.60;0.60;;;;;;;6.41;86.90;99832.09;4952988;29;20080;-86
2023/04/11 03:52:33;;;;;;;0.60;0.60;;;;;;;6.37;86.78;99827.31;4908016;29;20161;-87
2023/04/11 03:55:04;;;;;;;0.70;0.70;;;;;;;6.38;86.89;99845.06;4932487;29;20051;-83
2023/04/11 03:57:32;;;;;;;0.50;0.50;;;;;;;6.33;87.21;99843.00;4933939;29;20054;-81
2023/04/11 04:00:14;;;;;;;0.60;0.60;;;;;;;6.27;87.22;99844.56;4916981;29;20075;-84
2023/04/11 04:02:41;;;;;;;0.60;0.60;;;;;;;6.23;87.23;99846.00;4555620;29;10002129;-83
2023/04/11 04:05:13;;;;;;;0.60;0.60;;;;;;;6.29;86.79;99839.84;4891555;29;20053;-87
2023/04/11 04:07:41;;;;;;;0.60;0.60;;;;;;;6.35;86.42;99843.59;4871796;29;20055;-84
2023/04/11 04:10:16;;;;;;;0.60;0.60;;;;;;;6.43;86.09;99842.63;4873493;29;20053;-84
2023/04/11 04:12:51;;;;;;;0.60;0.60;;;;;;;6.53;86.21;99837.72;4885804;29;20135;-81
2023/04/11 04:15:32;;;;;;;0.60;0.60;;;;;;;6.64;85.65;99839.88;4892212;29;20057;-82
2023/04/11 04:18:01;;;;;;;0.60;0.60;;;;;;;6.75;85.07;99838.47;4880433;29;20048;-83
2023/04/11 04:20:55;;;;;;;0.60;0.60;;;;;;;6.82;85.00;99831.28;4880538;29;20144;-82
2023/04/11 04:23:25;;;;;;;0.60;0.60;;;;;;;6.97;85.06;99839.19;4893203;29;20056;-82
2023/04/11 04:26:11;;;;;;;0.60;0.60;;;;;;;7.10;85.22;99843.78;4895212;29;20065;-82
2023/04/11 04:28:46;;;;;;;0.60;0.60;;;;;;;7.22;84.79;99847.53;4853944;29;20057;-83
2023/04/11 04:31:24;;;;;;;0.60;0.60;;;;;;;7.28;84.27;99838.66;4850978;29;20131;-83
2023/04/11 04:34:08;;;;;;;0.60;0.60;;;;;;;7.38;84.24;99833.72;4884469;29;20064;-83
2023/04/11 04:36:46;;;;;;;0.60;0.60;;;;;;;7.47;83.95;99833.53;4894869;29;20056;-82
2023/04/11 04:39:24;;;;;;;0.60;0.60;;;;;;;7.50;83.56;99828.59;4879409;29;20482;-87
2023/04/11 04:42:00;;;;;;;0.57;0.57;;;;;;;7.54;83.25;99826.31;4879267;29;20052;-86
2023/04/11 04:44:36;;;;;;;0.60;0.60;;;;;;;7.64;82.69;99823.22;4894894;29;20052;-84
2023/04/11 04:47:11;;;;;;;0.57;0.57;;;;;;;7.71;81.95;99830.25;4894083;29;20053;-83
2023/04/11 04:49:40;;;;;;;0.60;0.60;;;;;;;7.73;81.34;99828.19;4895029;29;20067;-83
2023/04/11 04:52:07;;;;;;;0.60;0.60;;;;;;;7.81;80.85;99827.16;4871535;29;20135;-85
2023/04/11 04:54:34;;;;;;;0.60;0.60;;;;;;;7.89;80.26;99826.13;4895582;29;20140;-85
2023/04/11 04:57:02;;;;;;;0.60;0.60;;;;;;;7.96;80.12;99826.97;4893627;29;20083;-84
2023/04/11 04:59:31;;;;;;;0.60;0.60;;;;;;;7.99;79.79;99827.38;4879886;29;20052;-83
2023/04/11 05:02:06;;;;;;;0.60;0.60;;;;;;;8.09;79.18;99826.94;4893191;29;20060;-82
2023/04/11 05:04:37;;;;;;;0.60;0.60;;;;;;;8.22;79.05;99818.03;4897519;29;20063;-84
2023/04/11 05:07:05;;;;;;;0.70;0.70;;;;;;;8.43;78.37;99825.91;4891080;29;20646;-84
2023/04/11 05:10:05;;;;;;;0.60;0.60;;;;;;;8.58;77.39;99825.66;4892698;29;20547;-87
2023/04/11 05:13:02;;;;;;;0.60;0.60;;;;;;;8.57;77.08;99807.84;4910054;29;20062;-85
2023/04/11 05:15:30;;;;;;;0.60;0.60;;;;;;;8.71;76.73;99829.31;4893163;29;20067;-83
2023/04/11 05:17:58;;;;;;;0.60;0.60;;;;;;;8.76;76.75;99816.06;4898735;29;20052;-82
2023/04/11 05:20:28;;;;;;;0.60;0.60;;;;;;;8.82;76.03;99807.16;4895908;29;20052;-84
2023/04/11 05:25:49;;;;;;;0.60;0.60;;;;;;;9.04;75.06;99808.50;4878330;29;20066;-84
2023/04/11 05:28:19;;;;;;;0.60;0.60;;;;;;;9.14;74.42;99807.19;4893218;29;20054;-82
2023/04/11 05:30:48;;;;;;;0.60;0.60;;;;;;;9.17;74.00;99802.22;4861525;29;20056;-83
2023/04/11 05:33:15;;;;;;;0.60;0.60;;;;;;;9.25;73.74;99803.84;4905186;29;20059;-82
2023/04/11 05:35:43;;;;;;;0.60;0.60;;;;;;;9.36;73.46;99807.69;4911683;29;20055;-81
2023/04/11 05:38:10;;;;;;;0.60;0.60;;;;;;;9.35;72.59;99796.09;4891813;29;20067;-81
2023/04/11 05:40:38;;;;;;;0.60;0.60;;;;;;;9.49;71.26;99803.03;4896785;29;20056;-82
2023/04/11 05:43:05;;;;;;;0.60;0.60;;;;;;;9.56;69.92;99797.59;4913059;29;20060;-82
2023/04/11 05:45:33;;;;;;;0.60;0.60;;;;;;;9.64;69.08;99802.72;4896740;29;20059;-82
2023/04/11 05:48:00;;;;;;;0.60;0.60;;;;;;;9.86;68.99;99805.88;4913699;29;20108;-83
2023/04/11 05:50:27;;;;;;;0.60;0.60;;;;;;;9.98;68.52;99798.72;4912713;29;20176;-83
2023/04/11 05:52:54;;;;;;;0.50;0.50;;;;;;;10.15;67.72;99808.94;4912255;29;20212;-81
2023/04/11 05:55:21;;;;;;;0.60;0.60;;;;;;;10.18;67.92;99808.50;4897862;29;20058;-82
2023/04/11 05:57:49;;;;;;;0.60;0.60;;;;;;;10.26;67.65;99789.34;4917253;29;20062;-83
2023/04/11 06:00:17;;;;;;;0.60;0.60;;;;;;;10.53;66.97;99808.81;4900010;29;20146;-82
2023/04/11 06:02:45;;;;;;;0.50;0.50;;;;;;;10.41;66.36;99797.09;4917432;29;20077;-83
2023/04/11 06:06:07;;;;;;;0.60;0.60;;;;;;;10.66;65.96;99804.28;4918293;29;20059;-82
2023/04/11 06:08:34;;;;;;;0.60;0.60;;;;;;;10.84;65.40;99797.00;4922092;29;20090;-82
2023/04/11 06:11:01;;;;;;;0.50;0.50;;;;;;;11.17;63.62;99801.16;4921496;29;20393;-81
2023/04/11 06:13:32;;;;;;;0.50;0.50;;;;;;;11.27;62.23;99800.59;4917097;29;20092;-82
2023/04/11 06:16:06;;;;;;;0.50;0.50;;;;;;;11.16;61.23;99788.69;4917383;29;20059;-82
2023/04/11 06:18:37;;;;;;;0.50;0.50;;;;;;;10.85;60.31;99785.13;4900588;29;20503;-82
2023/04/11 06:21:05;;;;;;;0.60;0.60;;;;;;;10.74;60.82;99802.13;4865510;29;20079;-82
2023/04/11 06:23:34;;;;;;;0.60;0.60;;;;;;;10.74;60.09;99801.31;4898274;29;20124;-83
2023/04/11 06:26:04;;;;;;;0.50;0.50;;;;;;;10.70;58.58;99803.59;4900295;29;20064;-82
2023/04/11 06:28:32;;;;;;;0.50;0.50;;;;;;;10.51;57.29;99796.59;4915019;29;20052;-82
2023/04/11 06:31:02;;;;;;;0.50;0.50;;;;;;;10.54;57.20;99801.53;4899553;29;20062;-83
2023/04/11 06:33:31;;;;;;;0.50;0.50;;;;;;;10.48;57.55;99797.00;4916597;29;20059;-82
2023/04/11 06:36:02;;;;;;;0.50;0.50;;;;;;;10.54;57.58;99785.34;4901187;29;20060;-83
2023/04/11 06:38:35;;;;;;;0.60;0.60;;;;;;;10.35;55.70;99779.91;4897740;29;20048;-81
2023/04/11 06:41:02;;;;;;;0.60;0.60;;;;;;;10.30;56.48;99795.13;4912617;29;20138;-84
2023/04/11 06:43:30;;;;;;;0.50;0.50;;;;;;;10.27;57.35;99785.56;4904565;29;20062;-82
2023/04/11 06:45:57;;;;;;;0.60;0.60;;;;;;;10.36;57.15;99805.84;4924687;29;20059;-83
2023/04/11 06:48:25;;;;;;;0.60;0.60;;;;;;;10.36;56.12;99805.84;4917045;29;20058;-84
2023/04/11 06:50:52;;;;;;;0.60;0.60;;;;;;;10.20;56.65;99796.44;4899561;29;20508;-83
2023/04/11 06:53:19;;;;;;;0.60;0.60;;;;;;;10.13;57.04;99794.88;4916878;29;20056;-84
2023/04/11 06:55:49;;;;;;;0.60;0.60;;;;;;;10.07;57.01;99784.94;4916984;29;20055;-83
2023/04/11 06:58:19;;;;;;;0.60;0.60;;;;;;;10.39;57.23;99799.19;4917822;29;20110;-85
2023/04/11 07:00:46;;;;;;;0.60;0.60;;;;;;;10.53;56.98;99797.16;4918675;29;20064;-85
2023/04/11 07:03:32;;;;;;;0.60;0.60;;;;;;;10.63;56.81;99794.75;4901560;29;20522;-84
2023/04/11 07:06:00;;;;;;;0.50;0.50;;;;;;;10.59;56.88;99791.69;4916492;29;20052;-84
2023/04/11 07:08:29;;;;;;;0.60;0.60;;;;;;;10.44;56.42;99780.44;4916984;29;20048;-83
2023/04/11 07:10:56;;;;;;;0.60;0.60;;;;;;;10.59;57.03;99796.28;4849556;29;20053;-84
2023/04/11 07:13:25;;;;;;;0.50;0.50;;;;;;;10.79;56.24;99788.75;4896340;29;20087;-83
2023/04/11 07:15:52;;;;;;;0.60;0.60;;;;;;;11.00;56.42;99771.25;4881553;29;20108;-84
2023/04/11 07:18:38;;;;;;;0.60;0.60;;;;;;;11.38;56.87;99780.06;4897884;29;20128;-85
2023/04/11 07:21:26;;;;;;;0.60;0.60;;;;;;;11.65;55.32;99775.09;4883710;29;20493;-83
2023/04/11 07:23:53;;;;;;;0.60;0.60;;;;;;;11.78;54.13;99776.75;4897064;29;20060;-84
2023/04/11 07:26:22;;;;;;;0.60;0.60;;;;;;;11.74;53.19;99772.84;4899257;29;20516;-85
2023/04/11 07:29:11;;;;;;;0.60;0.60;;;;;;;11.64;53.59;99740.97;4886346;29;20052;-84
2023/04/11 07:31:59;;;;;;;0.60;0.60;;;;;;;12.12;52.50;99770.53;4900623;29;20155;-84
2023/04/11 07:34:26;;;;;;;0.70;0.70;;;;;;;12.33;51.70;99768.28;4907432;29;20621;-84
2023/04/11 07:36:59;;;;;;;0.60;0.60;;;;;;;12.66;51.08;99769.53;4929756;29;20064;-84
2023/04/11 07:39:30;;;;;;;0.60;0.60;;;;;;;12.58;49.01;99763.44;4916100;29;20479;-84
2023/04/11 07:41:57;;;;;;;0.60;0.60;;;;;;;12.63;49.67;99760.00;4883548;29;20139;-85
2023/04/11 07:44:26;;;;;;;0.68;0.68;;;;;;;12.88;48.88;99756.97;4899041;29;20083;-84
2023/04/11 07:46:53;;;;;;;0.60;0.60;;;;;;;12.95;48.94;99757.66;4898556;29;20146;-83
2023/04/11 07:49:20;;;;;;;0.65;0.65;;;;;;;13.08;47.12;99761.97;4916068;29;20135;-86
2023/04/11 07:51:47;;;;;;;0.60;0.60;;;;;;;13.32;46.71;99741.03;4917335;29;20056;-84
2023/04/11 07:54:14;;;;;;;0.70;0.70;;;;;;;13.42;44.99;99745.81;4915807;29;20055;-84
2023/04/11 07:56:41;;;;;;;0.70;0.70;;;;;;;13.27;43.51;99746.34;4898828;29;20576;-84
2023/04/11 07:59:14;;;;;;;0.70;0.70;;;;;;;13.30;42.91;99743.16;4899832;29;20062;-85
2023/04/11 08:01:42;;;;;;;0.60;0.60;;;;;;;13.20;42.38;99734.81;4883716;29;20062;-83
2023/04/11 08:04:09;;;;;;;0.60;0.60;;;;;;;13.27;41.08;99749.06;4915253;29;20052;-84
2023/04/11 08:06:40;;;;;;;0.70;0.70;;;;;;;13.22;40.61;99746.25;4882718;29;20059;-84
2023/04/11 08:09:07;;;;;;;0.60;0.60;;;;;;;13.58;41.80;99736.03;4915337;29;20160;-83
2023/04/11 08:11:35;;;;;;;0.60;0.60;;;;;;;13.98;41.99;99732.31;4915058;29;20424;-84
2023/04/11 08:14:03;;;;;;;0.60;0.60;;;;;;;14.31;40.70;99725.97;4899253;29;20100;-83
2023/04/11 08:16:30;;;;;;;0.60;0.60;;;;;;;14.39;40.20;99733.69;4924958;29;20054;-83
2023/04/11 08:19:00;;;;;;;0.70;0.70;;;;;;;14.43;40.28;99728.56;4917789;29;20399;-86
2023/04/11 08:21:28;;;;;;;0.77;0.77;;;;;;;14.74;40.27;99738.78;4929526;29;20100;-83
2023/04/11 08:24:15;;;;;;;0.70;0.70;;;;;;;15.25;39.84;99727.63;4915066;29;20086;-86
2023/04/11 08:26:42;;;;;;;0.70;0.70;;;;;;;14.99;39.16;99710.25;4914898;29;20063;-82
2023/04/11 08:29:12;;;;;;;0.70;0.70;;;;;;;15.13;39.44;99716.88;4914247;29;20492;-83
2023/04/11 08:31:45;;;;;;;0.60;0.60;;;;;;;15.18;38.83;99719.66;4895961;29;20070;-83
2023/04/11 08:34:23;;;;;;;0.70;0.70;;;;;;;15.65;38.25;99712.72;4913883;29;20059;-83
2023/04/11 08:37:09;;;;;;;0.70;0.70;;;;;;;16.10;38.21;99703.22;4933307;29;20079;-81
2023/04/11 08:39:37;;;;;;;0.60;0.60;;;;;;;16.68;36.91;99714.09;4934068;29;20054;-83
2023/04/11 08:42:04;;;;;;;0.60;0.60;;;;;;;16.83;36.11;99711.47;4917126;29;20642;-83
2023/04/11 08:44:35;;;;;;;0.68;0.68;;;;;;;16.80;35.87;99712.00;4934329;29;20102;-82
2023/04/11 08:47:06;;;;;;;0.70;0.70;;;;;;;16.87;35.38;99685.31;4933540;29;20427;-83
2023/04/11 08:49:52;;;;;;;0.60;0.60;;;;;;;16.69;35.07;99700.22;4933795;29;20056;-82
2023/04/11 08:52:48;;;;;;;0.60;0.60;;;;;;;16.62;34.31;99698.84;4933408;29;20147;-81
2023/04/11 08:55:34;;;;;;;0.70;0.70;;;;;;;16.62;34.00;99696.13;4924623;29;20060;-83
2023/04/11 08:58:03;;;;;;;0.70;0.70;;;;;;;16.44;34.05;99694.69;4933499;29;20530;-83
2023/04/11 09:03:16;;;;;;;0.70;0.70;;;;;;;16.95;33.38;99685.88;4933772;29;20054;-82
2023/04/11 09:08:37;;;;;;;0.70;0.70;;;;;;;18.12;31.87;99688.56;4933607;29;20055;-83
2023/04/11 09:11:07;;;;;;;0.70;0.70;;;;;;;17.94;31.58;99684.50;4921307;29;20106;-81
2023/04/11 09:14:11;;;;;;;0.70;0.70;;;;;;;17.83;31.49;99674.72;4914787;29;20052;-84
2023/04/11 09:16:53;;;;;;;0.70;0.70;;;;;;;18.39;31.12;99688.19;4913862;29;20119;-84
2023/04/11 09:19:31;;;;;;;0.68;0.68;;;;;;;18.82;29.90;99679.56;4913968;29;20534;-83
2023/04/11 09:22:00;;;;;;;0.60;0.60;;;;;;;19.12;29.17;99677.72;4910217;29;20436;-84
2023/04/11 09:24:30;;;;;;;0.60;0.60;;;;;;;19.07;29.08;99678.56;4891018;29;20549;-83
2023/04/11 09:27:12;;;;;;;0.70;0.70;;;;;;;18.55;29.05;99669.81;4890331;29;20100;-82
2023/04/11 09:30:05;;;;;;;0.60;0.60;;;;;;;19.11;28.88;99660.47;4885025;29;20079;-83
2023/04/11 09:32:33;;;;;;;0.60;0.60;;;;;;;18.82;29.01;99679.56;4891567;29;20143;-83
2023/04/11 09:35:08;;;;;;;0.60;0.60;;;;;;;18.28;29.81;99658.44;4906611;29;20071;-83
2023/04/11 09:37:45;;;;;;;0.70;0.70;;;;;;;18.59;30.07;99649.03;4910306;29;20064;-83
2023/04/11 09:40:13;;;;;;;0.60;0.60;;;;;;;18.81;29.70;99645.09;4910445;29;20583;-83
2023/04/11 09:42:41;;;;;;;0.57;0.57;;;;;;;18.93;29.50;99636.53;4910343;29;20055;-81
2023/04/11 09:45:20;;;;;;;0.60;0.60;;;;;;;18.87;29.72;99634.97;4909849;29;20056;-84
2023/04/11 09:48:07;;;;;;;0.60;0.60;;;;;;;19.86;28.67;99629.19;4891551;29;20143;-82
2023/04/11 09:50:35;;;;;;;0.68;0.68;;;;;;;20.06;27.79;99619.91;4910006;29;20116;-81
2023/04/11 09:53:05;;;;;;;0.60;0.60;;;;;;;19.91;27.84;99624.44;4901669;29;20520;-83
2023/04/11 09:55:32;;;;;;;0.60;0.60;;;;;;;20.85;27.54;99620.22;4889565;29;20049;-83
2023/04/11 09:57:59;;;;;;;0.60;0.60;;;;;;;20.92;26.64;99634.38;4909577;29;20056;-84
2023/04/11 10:00:31;;;;;;;0.60;0.60;;;;;;;20.71;26.29;99628.41;4909948;29;20426;-82
2023/04/11 10:03:00;;;;;;;0.60;0.60;;;;;;;19.84;26.55;99604.00;4908897;29;20056;-83
2023/04/11 10:05:30;;;;;;;0.63;0.63;;;;;;;19.38;27.28;99605.25;4908684;29;20705;-83
2023/04/11 10:08:07;;;;;;;0.50;0.50;;;;;;;19.02;27.80;99596.56;4908394;29;20050;-83
2023/04/11 10:10:35;;;;;;;0.60;0.60;;;;;;;20.12;27.21;99597.63;4899736;29;20542;-83
2023/04/11 10:13:40;;;;;;;0.70;0.70;;;;;;;21.53;25.50;99579.59;4566424;29;9999747;-84
2023/04/11 10:16:18;;;;;;;0.70;0.70;;;;;;;22.37;24.43;99582.03;4929042;29;20832;-82
2023/04/11 10:18:51;;;;;;;0.60;0.60;;;;;;;23.09;23.76;99574.88;4884541;29;20144;-84
2023/04/11 10:21:33;;;;;;;0.60;0.60;;;;;;;23.15;23.56;99579.13;4895979;29;20056;-84
2023/04/11 10:24:16;;;;;;;0.60;0.60;;;;;;;22.54;23.86;99583.34;4908698;29;20503;-84
2023/04/11 10:26:48;;;;;;;0.60;0.60;;;;;;;22.42;23.43;99572.88;4893190;29;20598;-83
2023/04/11 10:29:41;;;;;;;0.60;0.60;;;;;;;22.61;23.16;99575.44;4908739;29;20518;-82
2023/04/11 10:32:18;;;;;;;0.60;0.60;;;;;;;22.03;23.48;99583.28;4885612;29;20076;-84
2023/04/11 10:34:53;;;;;;;0.60;0.60;;;;;;;22.18;23.73;99562.06;4891779;29;20052;-84
2023/04/11 10:37:35;;;;;;;0.68;0.68;;;;;;;22.84;23.38;99568.03;4907097;29;20108;-84
2023/04/11 10:40:09;;;;;;;0.60;0.60;;;;;;;22.54;22.76;99551.13;4889938;29;20139;-85
2023/04/11 10:42:43;;;;;;;0.50;0.50;;;;;;;21.41;23.00;99555.38;4912366;29;20071;-85
2023/04/11 10:45:18;;;;;;;0.40;0.40;;;;;;;18.52;25.91;99549.31;4880312;29;20055;-84
2023/04/11 10:48:11;;;;;;;0.80;0.80;;;;;;;19.30;25.86;99548.41;4911757;29;20056;-84
2023/04/11 10:50:43;;;;;;;0.80;0.80;;;;;;;21.16;24.06;99543.69;4895142;29;20105;-84
2023/04/11 10:53:33;;;;;;;0.80;0.80;;;;;;;22.31;22.91;99536.53;4906514;29;20159;-83
2023/04/11 10:56:00;;;;;;;0.70;0.70;;;;;;;23.51;22.21;99528.63;4907352;29;20052;-83
2023/04/11 10:58:36;;;;;;;0.30;0.30;;;;;;;22.87;21.92;99528.88;4894761;29;20053;-83
2023/04/11 11:01:06;;;;;;;0.30;0.30;;;;;;;20.61;23.48;99532.56;4894611;29;20052;-83
2023/04/11 11:04:06;;;;;;;0.40;0.40;;;;;;;18.68;25.41;99526.22;4911501;29;20112;-83
2023/04/11 11:06:33;;;;;;;0.40;0.40;;;;;;;17.98;26.36;99523.69;4919554;29;20056;-84
2023/04/11 11:09:21;;;;;;;0.40;0.40;;;;;;;17.43;26.80;99520.03;4919778;29;20052;-82
2023/04/11 11:12:15;;;;;;;0.40;0.40;;;;;;;17.20;27.67;99522.25;4899015;29;20056;-84
2023/04/11 11:14:44;;;;;;;0.30;0.30;;;;;;;17.11;27.72;99521.97;4918166;29;20143;-84
2023/04/11 11:17:12;;;;;;;0.80;0.80;;;;;;;18.24;26.33;99518.06;4891159;29;20130;-85
2023/04/11 11:19:45;;;;;;;0.40;0.40;;;;;;;19.77;24.46;99499.47;4914516;29;20115;-84
2023/04/11 11:22:24;;;;;;;0.30;0.30;;;;;;;19.23;25.32;99506.91;4915452;29;20052;-85
2023/04/11 11:24:52;;;;;;;0.40;0.40;;;;;;;18.83;25.92;99495.22;4911511;29;20091;-85
2023/04/11 11:27:23;;;;;;;0.40;0.40;;;;;;;18.65;26.62;99493.19;4915720;29;20078;-85
2023/04/11 11:29:51;;;;;;;0.30;0.30;;;;;;;19.28;24.81;99484.94;4914907;29;20432;-84
2023/04/11 11:32:26;;;;;;;0.35;0.35;;;;;;;18.93;25.88;99486.94;4887547;29;20144;-85
2023/04/11 11:34:56;;;;;;;0.40;0.40;;;;;;;18.65;26.42;99477.59;4912235;29;20053;-85
2023/04/11 11:37:23;;;;;;;0.40;0.40;;;;;;;18.10;26.72;99479.63;4934894;29;20166;-83
2023/04/11 11:39:51;;;;;;;0.30;0.30;;;;;;;17.69;27.00;99490.72;4934940;29;20107;-84
2023/04/11 11:42:20;;;;;;;0.40;0.40;;;;;;;17.03;27.55;99486.28;4923597;29;20470;-85
2023/04/11 11:44:47;;;;;;;0.50;0.50;;;;;;;16.93;27.19;99481.66;4915752;29;20079;-84
2023/04/11 11:47:15;;;;;;;0.50;0.50;;;;;;;17.22;27.64;99481.91;4914974;29;20055;-82
2023/04/11 11:49:53;;;;;;;0.52;0.52;;;;;;;19.30;25.16;99476.47;4896674;29;20048;-85
2023/04/11 11:52:35;;;;;;;0.40;0.40;;;;;;;18.58;26.01;99474.38;4889287;29;20071;-85
2023/04/11 11:55:04;;;;;;;0.40;0.40;;;;;;;17.86;26.69;99474.03;4915466;29;20187;-85
2023/04/11 11:57:36;;;;;;;0.40;0.40;;;;;;;17.36;27.15;99463.03;4905470;29;20289;-84
2023/04/11 12:00:10;;;;;;;0.40;0.40;;;;;;;17.10;27.61;99465.00;4895709;29;20060;-85
2023/04/11 12:02:43;;;;;;;0.40;0.40;;;;;;;16.83;28.00;99465.31;4909888;29;20052;-85
2023/04/11 12:05:13;;;;;;;0.40;0.40;;;;;;;16.33;28.18;99454.16;4914136;29;20059;-83
2023/04/11 12:07:40;;;;;;;0.40;0.40;;;;;;;16.32;28.65;99468.03;4897804;29;20092;-85